createdAt,value
2022-11-27T00:01:13.163Z,56.01
2022-11-27T00:04:17.907Z,56.15
2022-11-27T00:07:21.168Z,56.22
2022-11-27T00:10:25.329Z,56.17
2022-11-27T00:13:29.857Z,56.04
2022-11-27T00:16:33.869Z,56.16
2022-11-27T00:19:37.344Z,55.89
2022-11-27T00:22:41.074Z,55.77
2022-11-27T00:25:52.019Z,55.62
2022-11-27T00:28:57.600Z,55.50
2022-11-27T00:32:00.827Z,55.43
2022-11-27T00:35:04.808Z,55.58
2022-11-27T00:38:08.018Z,55.44
2022-11-27T00:41:15.490Z,55.64
2022-11-27T00:44:20.411Z,55.30
2022-11-27T00:47:24.222Z,55.29
2022-11-27T00:50:31.525Z,55.13
2022-11-27T00:53:36.049Z,55.25
2022-11-27T00:56:41.464Z,55.01
2022-11-27T00:59:46.500Z,54.93
2022-11-27T01:02:49.954Z,54.94
2022-11-27T01:05:54.759Z,55.19
2022-11-27T01:08:59.457Z,55.26
2022-11-27T01:12:03.561Z,54.82
2022-11-27T01:15:10.104Z,55.03
2022-11-27T01:18:13.924Z,54.65
2022-11-27T01:21:21.021Z,54.91
2022-11-27T01:24:24.807Z,55.06
2022-11-27T01:27:28.082Z,54.88
2022-11-27T01:30:33.311Z,54.64
2022-11-27T01:33:36.933Z,54.94
2022-11-27T01:36:40.754Z,54.59
2022-11-27T01:39:44.217Z,54.56
2022-11-27T01:42:48.106Z,54.90
2022-11-27T01:45:52.718Z,54.62
2022-11-27T01:49:04.272Z,54.36
2022-11-27T01:52:13.003Z,54.67
2022-11-27T01:55:25.751Z,54.53
2022-11-27T01:58:32.538Z,54.29
2022-11-27T02:01:38.153Z,54.48
2022-11-27T02:04:41.725Z,54.43
2022-11-27T02:07:46.797Z,54.65
2022-11-27T02:10:58.737Z,54.53
2022-11-27T02:14:14.566Z,54.65
2022-11-27T02:17:28.993Z,54.34
2022-11-27T02:20:50.109Z,54.54
2022-11-27T02:24:43.304Z,54.31
2022-11-27T02:28:19.905Z,54.44
2022-11-27T02:31:39.110Z,54.50
2022-11-27T02:34:55.778Z,54.67
2022-11-27T02:38:07.615Z,54.24
2022-11-27T02:41:21.815Z,54.56
2022-11-27T02:44:32.700Z,54.44
2022-11-27T02:47:40.887Z,54.56
2022-11-27T02:50:47.947Z,54.26
2022-11-27T02:53:57.790Z,54.28
2022-11-27T02:57:06.053Z,54.54
2022-11-27T03:00:12.932Z,54.28
2022-11-27T03:03:25.194Z,54.09
2022-11-27T03:06:37.974Z,54.18
2022-11-27T03:09:47.030Z,54.13
2022-11-27T03:12:52.900Z,54.32
2022-11-27T03:16:14.310Z,53.88
2022-11-27T03:19:27.405Z,54.19
2022-11-27T03:22:31.724Z,53.88
2022-11-27T03:25:35.869Z,54.11
2022-11-27T03:28:41.171Z,54.09
2022-11-27T03:31:45.768Z,54.05
2022-11-27T03:34:51.320Z,53.94
2022-11-27T03:37:56.889Z,53.83
2022-11-27T03:41:11.669Z,53.79
2022-11-27T03:44:30.983Z,53.85
2022-11-27T03:47:51.415Z,53.81
2022-11-27T03:51:12.661Z,53.92
2022-11-27T03:54:28.184Z,54.21
2022-11-27T03:57:39.182Z,53.78
2022-11-27T04:00:46.657Z,53.82
2022-11-27T04:03:50.763Z,53.82
2022-11-27T04:06:55.401Z,53.66
2022-11-27T04:09:59.005Z,53.87
2022-11-27T04:13:02.385Z,53.54
2022-11-27T04:16:07.792Z,53.84
2022-11-27T04:19:11.094Z,53.79
2022-11-27T04:22:16.310Z,53.39
2022-11-27T04:25:19.671Z,53.86
2022-11-27T04:28:23.412Z,53.74
2022-11-27T04:31:26.710Z,53.65
2022-11-27T04:34:30.369Z,53.77
2022-11-27T04:37:34.958Z,53.50
2022-11-27T04:40:39.003Z,53.58
2022-11-27T04:43:42.275Z,53.49
2022-11-27T04:46:46.152Z,53.50
2022-11-27T04:49:49.412Z,53.62
2022-11-27T04:52:54.561Z,53.66
2022-11-27T04:55:58.015Z,53.68
2022-11-27T04:59:01.599Z,53.54
2022-11-27T05:02:05.228Z,53.38
2022-11-27T05:05:10.143Z,53.12
2022-11-27T05:08:14.927Z,53.34
2022-11-27T05:11:19.556Z,53.04
2022-11-27T05:14:27.823Z,53.15
2022-11-27T05:17:32.125Z,53.24
2022-11-27T05:20:35.378Z,53.39
2022-11-27T05:23:40.569Z,53.07
2022-11-27T05:26:44.559Z,53.35
2022-11-27T05:29:48.449Z,53.10
2022-11-27T05:32:51.801Z,53.12
2022-11-27T05:35:55.326Z,53.24
2022-11-27T05:39:01.783Z,53.08
2022-11-27T05:42:05.905Z,53.05
2022-11-27T05:45:10.266Z,53.25
2022-11-27T05:48:13.993Z,53.33
2022-11-27T05:51:18.568Z,53.03
2022-11-27T05:54:23.644Z,53.15
2022-11-27T05:57:28.157Z,52.93
2022-11-27T06:00:32.328Z,53.17
2022-11-27T06:03:35.917Z,53.01
2022-11-27T06:06:39.536Z,53.26
2022-11-27T06:09:44.169Z,52.97
2022-11-27T06:12:47.780Z,53.19
2022-11-27T06:15:51.039Z,53.07
2022-11-27T06:18:57.013Z,52.74
2022-11-27T06:22:00.237Z,53.31
2022-11-27T06:25:06.188Z,53.56
2022-11-27T06:28:09.497Z,53.43
2022-11-27T06:31:19.339Z,53.24
2022-11-27T06:34:22.584Z,53.66
2022-11-27T06:37:26.533Z,53.45
2022-11-27T06:40:31.149Z,53.33
2022-11-27T06:43:36.355Z,53.70
2022-11-27T06:46:39.772Z,53.45
2022-11-27T06:49:43.435Z,53.50
2022-11-27T06:52:46.653Z,53.40
2022-11-27T06:55:51.653Z,53.42
2022-11-27T06:58:57.388Z,53.25
2022-11-27T07:02:01.025Z,53.16
2022-11-27T07:05:04.619Z,53.42
2022-11-27T07:08:08.189Z,53.05
2022-11-27T07:11:15.795Z,52.92
2022-11-27T07:14:19.390Z,53.17
2022-11-27T07:17:22.578Z,52.89
2022-11-27T07:20:26.856Z,53.07
2022-11-27T07:23:30.230Z,52.97
2022-11-27T07:26:35.351Z,52.82
2022-11-27T07:29:38.569Z,52.74
2022-11-27T07:32:42.290Z,52.71
2022-11-27T07:35:45.431Z,52.67
2022-11-27T07:38:50.630Z,52.90
2022-11-27T07:41:57.219Z,52.83
2022-11-27T07:45:04.134Z,53.16
2022-11-27T07:48:09.284Z,52.84
2022-11-27T07:51:16.051Z,52.91
2022-11-27T07:54:19.295Z,52.98
2022-11-27T07:57:24.583Z,52.53
2022-11-27T08:00:27.799Z,52.67
2022-11-27T08:03:31.687Z,52.69
2022-11-27T08:06:34.890Z,52.47
2022-11-27T08:09:40.013Z,52.51
2022-11-27T08:12:44.809Z,52.48
2022-11-27T08:15:48.569Z,52.42
2022-11-27T08:18:52.701Z,52.18
2022-11-27T08:21:57.615Z,52.15
2022-11-27T08:25:01.031Z,52.15
2022-11-27T08:28:06.280Z,52.12
2022-11-27T08:31:12.942Z,52.19
2022-11-27T08:34:16.859Z,52.21
2022-11-27T08:37:20.217Z,52.06
2022-11-27T08:40:23.959Z,52.17
2022-11-27T08:43:30.366Z,51.91
2022-11-27T08:46:33.893Z,52.13
2022-11-27T08:49:40.566Z,52.45
2022-11-27T08:52:46.136Z,52.65
2022-11-27T08:55:49.344Z,52.57
2022-11-27T08:58:54.976Z,52.48
2022-11-27T09:01:58.391Z,52.23
2022-11-27T09:05:02.815Z,52.19
2022-11-27T09:08:06.524Z,52.32
2022-11-27T09:11:13.094Z,52.53
2022-11-27T09:14:17.688Z,52.40
2022-11-27T09:17:21.646Z,52.64
2022-11-27T09:20:24.853Z,52.60
2022-11-27T09:23:29.470Z,52.93
2022-11-27T09:26:32.773Z,52.56
2022-11-27T09:29:38.012Z,53.15
2022-11-27T09:32:41.188Z,53.10
2022-11-27T09:35:45.767Z,52.39
2022-11-27T09:38:49.879Z,53.15
2022-11-27T09:41:58.770Z,52.83
2022-11-27T09:45:09.128Z,52.91
2022-11-27T09:48:20.436Z,53.20
2022-11-27T09:51:34.043Z,53.22
2022-11-27T09:54:50.784Z,53.05
2022-11-27T09:58:03.391Z,53.10
2022-11-27T10:01:18.020Z,52.98
2022-11-27T10:04:22.632Z,53.18
2022-11-27T10:07:42.030Z,52.92
2022-11-27T10:11:03.262Z,52.98
2022-11-27T10:14:30.635Z,52.98
2022-11-27T10:17:44.412Z,53.13
2022-11-27T10:20:55.892Z,53.27
2022-11-27T10:24:14.930Z,52.94
2022-11-27T10:27:30.210Z,53.16
2022-11-27T10:30:41.495Z,53.36
2022-11-27T10:33:52.952Z,53.32
2022-11-27T10:37:00.211Z,52.82
2022-11-27T10:40:20.001Z,52.69
2022-11-27T10:43:26.139Z,52.99
2022-11-27T10:46:42.359Z,52.93
2022-11-27T10:49:49.169Z,52.90
2022-11-27T10:53:00.831Z,53.69
2022-11-27T10:56:37.678Z,53.19
2022-11-27T10:59:51.929Z,53.61
2022-11-27T11:03:02.431Z,54.14
2022-11-27T11:06:21.336Z,54.72
2022-11-27T11:09:29.781Z,55.07
2022-11-27T11:12:33.242Z,54.66
2022-11-27T11:15:52.406Z,53.49
2022-11-27T11:18:58.013Z,52.36
2022-11-27T11:22:18.269Z,51.14
2022-11-27T11:25:23.082Z,50.53
2022-11-27T11:28:27.419Z,49.84
2022-11-27T11:31:38.305Z,49.42
2022-11-27T11:34:47.900Z,48.92
2022-11-27T11:37:54.273Z,48.61
2022-11-27T11:41:04.403Z,47.82
2022-11-27T11:44:22.542Z,48.06
2022-11-27T11:47:26.666Z,47.47
2022-11-27T11:50:41.245Z,47.54
2022-11-27T11:54:03.850Z,46.92
2022-11-27T11:57:27.830Z,47.65
2022-11-27T12:01:04.840Z,47.94
2022-11-27T12:04:34.755Z,47.86
2022-11-27T12:08:05.025Z,48.32
2022-11-27T12:11:18.266Z,49.01
2022-11-27T12:14:42.387Z,49.59
2022-11-27T12:18:00.981Z,50.14
2022-11-27T12:21:16.379Z,50.71
2022-11-27T12:24:42.523Z,51.01
2022-11-27T12:28:12.750Z,51.40
2022-11-27T12:31:39.013Z,52.61
2022-11-27T12:35:04.324Z,52.42
2022-11-27T12:38:32.346Z,52.26
2022-11-27T12:41:59.972Z,52.54
2022-11-27T12:45:18.777Z,52.51
2022-11-27T12:48:32.154Z,52.00
2022-11-27T12:51:46.372Z,52.21
2022-11-27T12:54:55.765Z,52.61
2022-11-27T12:58:07.679Z,52.47
2022-11-27T13:01:26.362Z,52.56
2022-11-27T13:04:43.556Z,52.28
2022-11-27T13:07:53.696Z,52.56
2022-11-27T13:11:05.093Z,52.42
2022-11-27T13:14:16.680Z,52.23
2022-11-27T13:17:25.119Z,52.27
2022-11-27T13:20:38.070Z,52.40
2022-11-27T13:23:42.184Z,52.51
2022-11-27T13:27:04.714Z,52.63
2022-11-27T13:30:19.866Z,52.77
2022-11-27T13:33:37.670Z,52.71
2022-11-27T13:36:46.147Z,52.86
2022-11-27T13:39:49.540Z,52.41
2022-11-27T13:42:57.159Z,52.12
2022-11-27T13:46:12.612Z,52.10
2022-11-27T13:49:29.282Z,52.24
2022-11-27T13:52:32.905Z,52.20
2022-11-27T13:55:40.647Z,52.57
2022-11-27T13:58:44.609Z,53.07
2022-11-27T14:01:59.196Z,53.00
2022-11-27T14:05:04.175Z,53.13
2022-11-27T14:08:21.332Z,52.82
2022-11-27T14:11:39.944Z,53.07
2022-11-27T14:14:45.723Z,52.78
2022-11-27T14:17:52.623Z,52.94
2022-11-27T14:21:02.526Z,52.38
2022-11-27T14:24:27.820Z,52.36
2022-11-27T14:27:37.212Z,52.76
2022-11-27T14:30:47.938Z,52.64
2022-11-27T14:37:26.602Z,52.98
2022-11-27T14:40:30.369Z,53.33
2022-11-27T14:43:33.671Z,53.37
2022-11-27T14:46:38.820Z,53.50
2022-11-27T14:49:42.545Z,53.45
2022-11-27T14:52:55.488Z,53.48
2022-11-27T14:56:00.320Z,53.25
2022-11-27T14:59:06.739Z,53.30
2022-11-27T15:02:23.422Z,52.98
2022-11-27T15:05:40.935Z,53.97
2022-11-27T15:09:09.044Z,53.42
2022-11-27T15:12:22.266Z,53.47
2022-11-27T15:15:28.967Z,53.97
2022-11-27T15:18:38.140Z,53.76
2022-11-27T15:21:41.559Z,53.88
2022-11-27T15:24:47.064Z,54.39
2022-11-27T15:27:50.790Z,54.98
2022-11-27T15:30:55.409Z,55.35
2022-11-27T15:34:04.042Z,55.50
2022-11-27T15:37:24.501Z,55.33
2022-11-27T15:40:38.386Z,55.86
2022-11-27T15:43:41.955Z,55.79
2022-11-27T15:46:45.275Z,55.48
2022-11-27T15:49:49.334Z,55.55
2022-11-27T15:52:52.686Z,55.34
2022-11-27T15:55:59.318Z,55.44
2022-11-27T15:59:02.727Z,55.09
2022-11-27T16:02:07.738Z,54.95
2022-11-27T16:05:11.660Z,55.32
2022-11-27T16:08:16.161Z,54.95
2022-11-27T16:11:20.731Z,54.75
2022-11-27T16:14:24.540Z,54.76
2022-11-27T16:17:27.991Z,54.67
2022-11-27T16:20:31.663Z,55.00
2022-11-27T16:23:35.252Z,55.39
2022-11-27T16:26:41.460Z,55.93
2022-11-27T16:29:44.903Z,55.47
2022-11-27T16:32:48.663Z,55.70
2022-11-27T16:35:52.099Z,55.34
2022-11-27T16:38:56.947Z,55.07
2022-11-27T16:42:02.283Z,55.27
2022-11-27T16:45:07.811Z,55.42
2022-11-27T16:48:11.233Z,55.49
2022-11-27T16:51:18.077Z,55.50
2022-11-27T16:54:22.316Z,56.08
2022-11-27T16:57:29.205Z,55.93
2022-11-27T17:00:33.216Z,55.77
2022-11-27T17:03:37.639Z,55.61
2022-11-27T17:06:41.037Z,55.55
2022-11-27T17:09:44.580Z,55.72
2022-11-27T17:12:49.132Z,56.21
2022-11-27T17:15:52.675Z,57.10
2022-11-27T17:18:56.723Z,57.73
2022-11-27T17:22:00.453Z,58.21
2022-11-27T17:25:05.198Z,58.38
2022-11-27T17:28:10.507Z,58.47
2022-11-27T17:31:17.939Z,58.96
2022-11-27T17:34:22.246Z,58.52
2022-11-27T17:37:25.986Z,58.21
2022-11-27T17:40:30.603Z,58.35
2022-11-27T17:43:36.174Z,58.25
2022-11-27T17:46:40.644Z,58.08
2022-11-27T17:49:44.492Z,58.06
2022-11-27T17:52:48.383Z,57.97
2022-11-27T17:55:51.754Z,57.82
2022-11-27T17:58:59.702Z,58.05
2022-11-27T18:02:03.140Z,58.19
2022-11-27T18:05:08.180Z,58.08
2022-11-27T18:08:11.420Z,58.14
2022-11-27T18:11:18.775Z,58.08
2022-11-27T18:14:23.543Z,57.67
2022-11-27T18:17:29.409Z,57.71
2022-11-27T18:20:32.600Z,58.41
2022-11-27T18:23:49.666Z,58.56
2022-11-27T18:27:09.523Z,58.43
2022-11-27T18:30:16.167Z,51.71
2022-11-27T18:33:19.384Z,51.95
2022-11-27T18:36:23.154Z,55.64
2022-11-27T18:39:26.638Z,56.06
2022-11-27T18:42:32.737Z,56.41
2022-11-27T18:45:37.702Z,56.03
2022-11-27T18:48:43.900Z,55.22
2022-11-27T18:51:47.134Z,54.28
2022-11-27T18:54:50.924Z,53.39
2022-11-27T18:57:54.582Z,52.91
2022-11-27T19:00:59.622Z,52.38
2022-11-27T19:04:04.556Z,52.30
2022-11-27T19:07:08.276Z,52.13
2022-11-27T19:10:12.408Z,52.38
2022-11-27T19:13:16.289Z,52.53
2022-11-27T19:16:24.085Z,52.38
2022-11-27T19:19:53.944Z,52.39
2022-11-27T19:22:51.465Z,52.12
2022-11-27T19:25:57.336Z,52.06
2022-11-27T19:29:05.607Z,51.66
2022-11-27T19:32:11.678Z,51.96
2022-11-27T19:35:15.144Z,52.62
2022-11-27T19:38:18.698Z,52.99
2022-11-27T19:41:24.468Z,53.21
2022-11-27T19:44:28.450Z,53.68
2022-11-27T19:47:33.075Z,54.07
2022-11-27T19:50:36.914Z,53.99
2022-11-27T19:53:41.201Z,54.35
2022-11-27T19:56:44.781Z,55.20
2022-11-27T19:59:48.594Z,55.06
2022-11-27T20:02:53.669Z,55.28
2022-11-27T20:06:04.446Z,55.70
2022-11-27T20:09:08.500Z,56.32
2022-11-27T20:12:12.878Z,56.68
2022-11-27T20:15:16.901Z,56.97
2022-11-27T20:18:21.978Z,57.18
2022-11-27T20:21:27.376Z,57.56
2022-11-27T20:24:31.401Z,57.31
2022-11-27T20:27:35.690Z,57.28
2022-11-27T20:30:41.141Z,57.43
2022-11-27T20:33:47.129Z,57.66
2022-11-27T20:36:51.412Z,57.50
2022-11-27T20:39:55.331Z,57.52
2022-11-27T20:42:59.529Z,57.93
2022-11-27T20:46:04.535Z,57.67
2022-11-27T20:49:09.544Z,57.72
2022-11-27T20:52:14.511Z,57.92
2022-11-27T20:55:17.991Z,57.94
2022-11-27T20:58:23.019Z,58.05
2022-11-27T21:01:30.619Z,58.18
2022-11-27T21:04:35.917Z,58.13
2022-11-27T21:07:43.483Z,58.23
2022-11-27T21:10:47.536Z,58.32
2022-11-27T21:13:50.841Z,58.21
2022-11-27T21:16:55.247Z,58.13
2022-11-27T21:20:01.933Z,57.94
2022-11-27T21:23:06.046Z,58.14
2022-11-27T21:26:11.448Z,58.10
2022-11-27T21:29:16.600Z,57.63
2022-11-27T21:32:22.547Z,57.32
2022-11-27T21:35:32.049Z,57.42
2022-11-27T21:38:37.100Z,57.50
2022-11-27T21:41:40.872Z,57.40
2022-11-27T21:44:44.222Z,57.64
2022-11-27T21:47:47.922Z,57.45
2022-11-27T21:50:52.516Z,57.57
2022-11-27T21:53:59.026Z,57.97
2022-11-27T21:57:02.543Z,57.79
2022-11-27T22:00:08.283Z,58.70
2022-11-27T22:03:15.152Z,58.18
2022-11-27T22:06:20.342Z,56.55
2022-11-27T22:09:23.962Z,55.58
2022-11-27T22:12:27.704Z,54.29
2022-11-27T22:15:30.999Z,53.46
2022-11-27T22:18:34.804Z,53.04
2022-11-27T22:21:39.944Z,52.88
2022-11-27T22:24:44.388Z,52.00
2022-11-27T22:27:47.715Z,51.90
2022-11-27T22:30:51.590Z,51.01
2022-11-27T22:33:55.047Z,50.70
2022-11-27T22:37:01.780Z,50.19
2022-11-27T22:40:06.807Z,49.52
2022-11-27T22:43:10.400Z,49.27
2022-11-27T22:46:18.362Z,49.00
2022-11-27T22:49:22.535Z,48.73
2022-11-27T22:52:27.216Z,48.62
2022-11-27T22:55:30.845Z,48.21
2022-11-27T22:58:40.942Z,48.27
2022-11-27T23:01:45.352Z,47.86
2022-11-27T23:04:48.626Z,47.42
2022-11-27T23:07:53.952Z,47.63
2022-11-27T23:10:58.084Z,47.31
2022-11-27T23:14:01.933Z,47.18
2022-11-27T23:17:05.674Z,46.58
2022-11-27T23:20:10.780Z,47.07
2022-11-27T23:23:15.443Z,46.47
2022-11-27T23:26:23.412Z,46.04
2022-11-27T23:29:26.736Z,46.46
2022-11-27T23:32:30.740Z,45.81
2022-11-27T23:35:34.225Z,45.89
2022-11-27T23:38:41.115Z,46.31
2022-11-27T23:41:44.581Z,45.55
2022-11-27T23:44:48.313Z,45.65
2022-11-27T23:47:51.500Z,45.70
2022-11-27T23:50:55.244Z,45.52
2022-11-27T23:54:00.885Z,45.34
2022-11-27T23:57:04.838Z,45.24
